createdAt,value
2018-06-30T00:00:56.753Z,78.62
2018-06-30T00:03:46.105Z,78.84
2018-06-30T00:06:19.771Z,79.01
2018-06-30T00:08:51.333Z,79.53
2018-06-30T00:11:22.828Z,79.54
2018-06-30T00:13:56.280Z,79.70
2018-06-30T00:16:27.890Z,79.54
2018-06-30T00:18:59.529Z,79.79
2018-06-30T00:21:31.431Z,79.54
2018-06-30T00:24:03.109Z,79.27
2018-06-30T00:26:36.260Z,79.52
2018-06-30T00:29:09.449Z,79.47
2018-06-30T00:31:42.558Z,79.37
2018-06-30T00:34:15.501Z,79.29
2018-06-30T00:36:47.754Z,79.60
2018-06-30T00:39:19.945Z,79.76
2018-06-30T00:41:54.358Z,79.84
2018-06-30T00:44:25.825Z,80.54
2018-06-30T00:46:57.580Z,80.24
2018-06-30T00:49:32.205Z,80.46
2018-06-30T00:52:06.898Z,80.51
2018-06-30T00:54:38.493Z,80.40
2018-06-30T00:57:10.022Z,80.58
2018-06-30T00:59:44.431Z,80.48
2018-06-30T01:02:17.413Z,80.52
2018-06-30T01:04:48.911Z,80.27
2018-06-30T01:07:18.920Z,80.24
2018-06-30T01:09:51.874Z,79.28
2018-06-30T01:12:25.078Z,78.82
2018-06-30T01:14:56.917Z,78.67
2018-06-30T01:17:30.524Z,77.93
2018-06-30T01:20:00.586Z,78.22
2018-06-30T01:22:31.204Z,77.18
2018-06-30T01:25:04.037Z,76.98
2018-06-30T01:27:35.957Z,76.78
2018-06-30T01:30:12.495Z,76.77
2018-06-30T01:32:45.468Z,76.45
2018-06-30T01:35:18.447Z,77.32
2018-06-30T01:37:50.018Z,80.21
2018-06-30T01:40:22.964Z,80.36
2018-06-30T01:42:54.584Z,79.95
2018-06-30T01:45:27.625Z,80.29
2018-06-30T01:48:00.641Z,79.95
2018-06-30T01:50:30.790Z,79.83
2018-06-30T01:53:03.840Z,80.10
2018-06-30T01:55:35.617Z,80.22
2018-06-30T01:58:07.796Z,80.22
2018-06-30T02:00:40.126Z,80.31
2018-06-30T02:03:11.669Z,79.62
2018-06-30T02:05:46.183Z,79.20
2018-06-30T02:08:17.690Z,79.26
2018-06-30T02:10:47.863Z,79.12
2018-06-30T02:13:20.830Z,77.85
2018-06-30T02:15:54.154Z,77.61
2018-06-30T02:18:27.200Z,78.10
2018-06-30T02:21:00.778Z,79.07
2018-06-30T02:23:33.271Z,82.06
2018-06-30T02:26:03.402Z,82.18
2018-06-30T02:28:36.487Z,81.77
2018-06-30T02:31:09.777Z,81.98
2018-06-30T02:33:42.931Z,81.50
2018-06-30T02:36:15.917Z,82.00
2018-06-30T02:38:50.753Z,82.22
2018-06-30T02:41:23.861Z,81.94
2018-06-30T02:43:57.276Z,82.67
2018-06-30T02:46:28.695Z,82.18
2018-06-30T02:49:01.757Z,82.71
2018-06-30T02:51:34.186Z,82.79
2018-06-30T02:54:06.824Z,82.69
2018-06-30T02:56:38.299Z,82.52
2018-06-30T02:59:11.692Z,82.52
2018-06-30T03:01:44.915Z,82.54
2018-06-30T03:04:16.484Z,82.51
2018-06-30T03:06:48.000Z,82.45
2018-06-30T03:09:19.527Z,82.50
2018-06-30T03:11:52.678Z,82.66
2018-06-30T03:14:24.343Z,82.29
2018-06-30T03:16:55.939Z,82.11
2018-06-30T03:19:25.919Z,81.83
2018-06-30T03:21:56.870Z,81.54
2018-06-30T03:24:29.865Z,81.50
2018-06-30T03:27:02.108Z,81.50
2018-06-30T03:29:34.119Z,81.60
2018-06-30T03:32:08.793Z,81.51
2018-06-30T03:34:41.430Z,81.42
2018-06-30T03:37:12.890Z,81.20
2018-06-30T03:39:44.526Z,81.69
2018-06-30T03:42:17.675Z,81.81
2018-06-30T03:44:50.969Z,81.72
2018-06-30T03:47:22.554Z,81.05
2018-06-30T03:49:56.041Z,80.39
2018-06-30T03:52:27.437Z,78.81
2018-06-30T03:55:01.774Z,78.52
2018-06-30T03:57:36.209Z,77.84
2018-06-30T04:00:08.865Z,77.24
2018-06-30T04:02:39.386Z,76.39
2018-06-30T04:05:12.344Z,74.86
2018-06-30T04:07:45.554Z,73.77
2018-06-30T04:10:17.019Z,73.20
2018-06-30T04:12:49.978Z,72.42
2018-06-30T04:15:21.532Z,71.59
2018-06-30T04:17:56.941Z,70.89
2018-06-30T04:20:28.951Z,69.87
2018-06-30T04:23:02.111Z,69.29
2018-06-30T04:25:33.608Z,68.44
2018-06-30T04:28:03.999Z,66.99
2018-06-30T04:30:35.426Z,65.81
2018-06-30T04:33:10.626Z,65.43
2018-06-30T04:35:43.409Z,64.19
2018-06-30T04:38:17.953Z,63.69
2018-06-30T04:40:48.457Z,63.07
2018-06-30T04:43:21.584Z,61.73
2018-06-30T04:45:54.660Z,60.38
2018-06-30T04:48:26.138Z,61.31
2018-06-30T04:50:58.164Z,61.37
2018-06-30T04:53:29.833Z,60.59
2018-06-30T04:56:01.217Z,59.29
2018-06-30T04:58:34.166Z,59.52
2018-06-30T05:01:07.194Z,58.56
2018-06-30T05:03:38.669Z,57.58
2018-06-30T05:06:13.436Z,55.71
2018-06-30T05:08:47.818Z,55.64
2018-06-30T05:11:19.188Z,55.91
2018-06-30T05:13:50.675Z,54.08
2018-06-30T05:16:21.114Z,54.44
2018-06-30T05:18:54.520Z,56.58
2018-06-30T05:21:28.789Z,54.49
2018-06-30T05:24:03.125Z,55.28
2018-06-30T05:26:35.916Z,52.59
2018-06-30T05:29:09.303Z,52.26
2018-06-30T05:31:40.940Z,51.51
2018-06-30T05:34:12.355Z,50.37
2018-06-30T05:36:45.244Z,51.16
2018-06-30T05:39:18.162Z,51.42
2018-06-30T05:41:48.105Z,51.02
2018-06-30T05:44:20.062Z,49.53
2018-06-30T05:46:53.162Z,48.46
2018-06-30T05:49:26.304Z,49.93
2018-06-30T05:51:56.285Z,48.21
2018-06-30T05:54:29.383Z,48.18
2018-06-30T05:57:00.785Z,46.51
2018-06-30T05:59:33.920Z,47.74
2018-06-30T06:02:05.374Z,45.78
2018-06-30T06:04:38.267Z,46.80
2018-06-30T06:07:11.406Z,45.89
2018-06-30T06:09:40.704Z,45.91
2018-06-30T06:12:10.650Z,45.97
2018-06-30T06:14:42.415Z,47.93
2018-06-30T06:17:15.309Z,45.46
2018-06-30T06:19:48.451Z,45.26
2018-06-30T06:22:18.459Z,44.83
2018-06-30T06:24:51.394Z,42.59
2018-06-30T06:27:24.800Z,43.09
2018-06-30T06:29:54.659Z,42.98
2018-06-30T06:32:26.106Z,43.22
2018-06-30T06:34:56.039Z,45.25
2018-06-30T06:37:27.461Z,44.05
2018-06-30T06:40:00.531Z,46.37
2018-06-30T06:42:33.417Z,45.83
2018-06-30T06:45:04.338Z,44.31
2018-06-30T06:47:35.839Z,43.82
2018-06-30T06:50:06.164Z,43.71
2018-06-30T06:52:37.645Z,44.63
2018-06-30T06:55:09.069Z,44.39
2018-06-30T06:57:39.083Z,47.07
2018-06-30T07:00:12.018Z,44.19
2018-06-30T07:02:44.998Z,44.50
2018-06-30T07:05:16.439Z,43.67
2018-06-30T07:07:45.888Z,42.93
2018-06-30T07:10:20.378Z,45.84
2018-06-30T07:12:51.802Z,45.16
2018-06-30T07:15:24.729Z,42.29
2018-06-30T07:17:56.093Z,39.58
2018-06-30T07:20:27.568Z,39.22
2018-06-30T07:23:01.926Z,41.63
2018-06-30T07:25:33.370Z,43.70
2018-06-30T07:28:04.843Z,39.49
2018-06-30T07:30:34.895Z,38.73
2018-06-30T07:33:06.287Z,40.27
2018-06-30T07:35:39.166Z,39.08
2018-06-30T07:38:09.062Z,38.89
2018-06-30T07:40:40.349Z,37.38
2018-06-30T07:43:11.034Z,37.92
2018-06-30T07:45:42.444Z,37.87
2018-06-30T07:48:15.261Z,38.73
2018-06-30T07:50:48.213Z,37.86
2018-06-30T07:53:21.022Z,40.26
2018-06-30T07:55:52.499Z,39.64
2018-06-30T07:58:24.503Z,39.44
2018-06-30T08:00:56.816Z,39.54
2018-06-30T08:03:29.967Z,40.43
2018-06-30T08:06:02.804Z,37.74
2018-06-30T08:08:32.701Z,37.68
2018-06-30T08:11:03.045Z,38.44
2018-06-30T08:13:34.419Z,39.82
2018-06-30T08:16:05.300Z,40.07
2018-06-30T08:18:34.471Z,39.44
2018-06-30T08:21:06.068Z,38.89
2018-06-30T08:23:36.000Z,35.99
2018-06-30T08:26:07.436Z,39.99
2018-06-30T08:28:38.768Z,37.16
2018-06-30T08:31:11.560Z,38.32
2018-06-30T08:33:44.385Z,36.56
2018-06-30T08:36:17.342Z,38.22
2018-06-30T08:38:48.788Z,39.73
2018-06-30T08:41:21.614Z,38.67
2018-06-30T08:43:52.996Z,37.52
2018-06-30T08:46:24.553Z,38.98
2018-06-30T08:48:57.366Z,39.74
2018-06-30T08:51:27.316Z,35.52
2018-06-30T08:53:58.748Z,35.83
2018-06-30T08:56:30.139Z,37.28
2018-06-30T08:59:01.481Z,37.60
2018-06-30T09:01:34.233Z,35.83
2018-06-30T09:04:07.548Z,35.70
2018-06-30T09:06:40.558Z,37.28
2018-06-30T09:09:13.886Z,34.57
2018-06-30T09:11:45.217Z,37.41
2018-06-30T09:14:16.561Z,34.08
2018-06-30T09:16:49.361Z,34.54
2018-06-30T09:19:22.133Z,36.98
2018-06-30T09:21:55.373Z,36.84
2018-06-30T09:24:26.760Z,35.86
2018-06-30T09:27:01.358Z,37.24
2018-06-30T09:29:32.751Z,37.53
2018-06-30T09:32:05.572Z,38.45
2018-06-30T09:34:37.244Z,33.65
2018-06-30T09:37:08.744Z,34.69
2018-06-30T09:39:43.133Z,34.26
2018-06-30T09:42:16.069Z,35.82
2018-06-30T09:44:46.424Z,35.17
2018-06-30T09:47:20.831Z,37.03
2018-06-30T09:49:53.951Z,35.76
2018-06-30T09:52:26.176Z,33.88
2018-06-30T09:54:59.188Z,33.57
2018-06-30T09:57:31.892Z,32.33
2018-06-30T10:00:03.212Z,31.84
2018-06-30T10:02:34.955Z,31.60
2018-06-30T10:05:07.908Z,31.39
2018-06-30T10:07:40.743Z,32.37
2018-06-30T10:10:14.125Z,33.11
2018-06-30T10:12:47.127Z,32.44
2018-06-30T10:15:21.569Z,30.71
2018-06-30T10:17:53.449Z,33.06
2018-06-30T10:20:24.836Z,31.39
2018-06-30T10:22:58.555Z,32.08
2018-06-30T10:25:29.945Z,31.98
2018-06-30T10:28:02.898Z,30.89
2018-06-30T10:30:34.586Z,31.09
2018-06-30T10:33:06.495Z,29.86
2018-06-30T10:35:36.889Z,29.62
2018-06-30T10:38:09.974Z,30.04
2018-06-30T10:40:42.768Z,32.45
2018-06-30T10:43:13.242Z,31.22
2018-06-30T10:45:44.619Z,31.18
2018-06-30T10:48:14.630Z,31.58
2018-06-30T10:50:45.999Z,31.92
2018-06-30T10:53:18.856Z,30.73
2018-06-30T10:55:53.321Z,30.47
2018-06-30T10:58:25.450Z,32.08
2018-06-30T11:00:59.789Z,30.92
2018-06-30T11:03:31.534Z,31.48
2018-06-30T11:06:04.369Z,32.01
2018-06-30T11:08:36.067Z,30.67
2018-06-30T11:11:06.159Z,31.86
2018-06-30T11:13:38.945Z,31.53
2018-06-30T11:16:11.770Z,30.68
2018-06-30T11:18:43.401Z,30.84
2018-06-30T11:21:16.208Z,30.97
2018-06-30T11:23:49.194Z,30.50
2018-06-30T11:26:20.479Z,30.73
2018-06-30T11:28:51.975Z,28.89
2018-06-30T11:31:24.813Z,30.76
2018-06-30T11:33:57.580Z,30.22
2018-06-30T11:36:27.463Z,32.77
2018-06-30T11:39:00.404Z,32.35
2018-06-30T11:41:30.268Z,30.44
2018-06-30T11:44:03.166Z,31.27
2018-06-30T11:46:37.730Z,30.61
2018-06-30T11:49:09.756Z,31.16
2018-06-30T11:51:41.181Z,30.61
2018-06-30T11:54:11.110Z,30.59
2018-06-30T11:56:42.635Z,30.46
2018-06-30T11:59:13.069Z,30.75
2018-06-30T12:01:44.409Z,33.30
2018-06-30T12:04:17.239Z,29.31
2018-06-30T12:06:51.541Z,32.26
2018-06-30T12:09:24.420Z,31.13
2018-06-30T12:11:57.586Z,33.47
2018-06-30T12:14:30.384Z,32.97
2018-06-30T12:17:04.632Z,31.07
2018-06-30T12:19:36.702Z,30.53
2018-06-30T12:22:09.747Z,29.84
2018-06-30T12:24:42.676Z,27.76
2018-06-30T12:27:14.026Z,28.50
2018-06-30T12:29:48.376Z,31.28
2018-06-30T12:32:21.274Z,28.60
2018-06-30T12:34:54.036Z,30.66
2018-06-30T12:37:26.963Z,29.37
2018-06-30T12:40:00.092Z,28.82
2018-06-30T12:42:31.432Z,29.01
2018-06-30T12:45:04.625Z,29.06
2018-06-30T12:47:37.352Z,31.04
2018-06-30T12:50:09.258Z,29.98
2018-06-30T12:52:40.657Z,31.77
2018-06-30T12:55:12.110Z,28.55
2018-06-30T12:57:43.469Z,27.79
2018-06-30T13:00:16.421Z,29.39
2018-06-30T13:02:49.216Z,30.77
2018-06-30T13:05:20.880Z,29.14
2018-06-30T13:07:54.010Z,28.61
2018-06-30T13:10:25.477Z,29.74
2018-06-30T13:12:56.871Z,27.46
2018-06-30T13:15:28.318Z,26.73
2018-06-30T13:17:59.853Z,27.61
2018-06-30T13:20:33.397Z,27.54
2018-06-30T13:23:06.642Z,29.63
2018-06-30T13:25:38.004Z,26.97
2018-06-30T13:28:10.930Z,28.37
2018-06-30T13:30:44.121Z,26.33
2018-06-30T13:33:15.563Z,27.52
2018-06-30T13:35:45.452Z,26.24
2018-06-30T13:38:18.386Z,26.00
2018-06-30T13:40:48.326Z,27.64
2018-06-30T13:43:19.761Z,25.58
2018-06-30T13:45:54.073Z,25.85
2018-06-30T13:48:26.898Z,25.87
2018-06-30T13:50:59.817Z,26.65
2018-06-30T13:53:31.213Z,26.63
2018-06-30T13:56:02.906Z,24.51
2018-06-30T13:58:35.148Z,27.42
2018-06-30T14:01:06.618Z,26.11
2018-06-30T14:03:39.704Z,24.81
2018-06-30T14:06:09.517Z,25.74
2018-06-30T14:08:43.875Z,27.29
2018-06-30T14:11:15.635Z,27.61
2018-06-30T14:13:48.684Z,24.36
2018-06-30T14:16:21.527Z,23.70
2018-06-30T14:18:53.033Z,23.31
2018-06-30T14:21:24.567Z,25.36
2018-06-30T14:23:55.995Z,24.12
2018-06-30T14:26:25.630Z,22.32
2018-06-30T14:28:58.770Z,24.28
2018-06-30T14:31:28.744Z,21.97
2018-06-30T14:34:01.709Z,23.38
2018-06-30T14:36:35.048Z,23.17
2018-06-30T14:39:05.847Z,21.52
2018-06-30T14:41:37.828Z,21.42
2018-06-30T14:44:10.842Z,21.82
2018-06-30T14:46:42.251Z,22.04
2018-06-30T14:49:15.259Z,20.84
2018-06-30T14:51:46.640Z,20.93
2018-06-30T14:54:16.704Z,22.27
2018-06-30T14:56:48.642Z,22.64
2018-06-30T14:59:20.445Z,24.64
2018-06-30T15:01:53.323Z,22.15
2018-06-30T15:04:26.060Z,22.34
2018-06-30T15:06:57.575Z,22.53
2018-06-30T15:09:26.692Z,22.95
2018-06-30T15:11:56.571Z,22.28
2018-06-30T15:14:29.379Z,22.09
2018-06-30T15:17:00.683Z,22.57
2018-06-30T15:19:32.097Z,22.45
2018-06-30T15:22:03.992Z,21.90
2018-06-30T15:24:36.982Z,22.53
2018-06-30T15:27:11.459Z,22.59
2018-06-30T15:29:44.268Z,21.20
2018-06-30T15:32:16.317Z,20.87
2018-06-30T15:34:47.675Z,21.65
2018-06-30T15:37:22.036Z,22.06
2018-06-30T15:39:55.326Z,21.71
2018-06-30T15:42:25.188Z,22.71
2018-06-30T15:44:58.047Z,20.88
2018-06-30T15:47:30.964Z,22.03
2018-06-30T15:50:02.857Z,19.69
2018-06-30T15:52:36.260Z,21.68
2018-06-30T15:55:09.388Z,21.68
2018-06-30T15:57:42.165Z,20.18
2018-06-30T16:00:15.012Z,20.67
2018-06-30T16:02:49.241Z,19.38
2018-06-30T16:05:22.258Z,21.09
2018-06-30T16:07:53.552Z,19.78
2018-06-30T16:10:26.440Z,20.34
2018-06-30T16:12:58.464Z,19.84
2018-06-30T16:15:29.023Z,19.67
2018-06-30T16:18:01.832Z,20.49
2018-06-30T16:20:36.657Z,19.10
2018-06-30T16:23:09.664Z,20.63
2018-06-30T16:25:40.988Z,21.33
2018-06-30T16:28:13.438Z,18.89
2018-06-30T16:30:46.343Z,19.31
2018-06-30T16:33:20.609Z,18.96
2018-06-30T16:35:50.544Z,21.44
2018-06-30T16:38:26.030Z,19.31
2018-06-30T16:40:59.038Z,19.64
2018-06-30T16:43:32.321Z,20.00
2018-06-30T16:46:02.820Z,21.33
2018-06-30T16:48:35.617Z,20.95
2018-06-30T16:51:07.299Z,21.54
2018-06-30T16:53:41.688Z,22.74
2018-06-30T16:56:14.670Z,19.34
2018-06-30T16:58:44.732Z,20.69
2018-06-30T17:01:17.668Z,20.06
2018-06-30T17:03:50.489Z,21.53
2018-06-30T17:06:21.889Z,20.30
2018-06-30T17:08:52.465Z,19.49
2018-06-30T17:11:26.744Z,20.96
2018-06-30T17:13:58.124Z,18.84
2018-06-30T17:16:30.910Z,20.32
2018-06-30T17:19:03.794Z,21.39
2018-06-30T17:21:36.196Z,22.42
2018-06-30T17:24:09.115Z,21.73
2018-06-30T17:26:40.869Z,23.30
2018-06-30T17:29:13.551Z,19.19
2018-06-30T17:31:44.997Z,20.07
2018-06-30T17:34:16.398Z,20.22
2018-06-30T17:36:47.864Z,19.94
2018-06-30T17:39:22.116Z,20.44
2018-06-30T17:41:56.762Z,20.98
2018-06-30T17:44:29.563Z,21.33
2018-06-30T17:47:00.860Z,22.80
2018-06-30T17:49:32.317Z,20.98
2018-06-30T17:52:02.200Z,22.02
2018-06-30T17:54:32.130Z,23.59
2018-06-30T17:57:03.818Z,23.15
2018-06-30T17:59:35.269Z,25.23
2018-06-30T18:02:05.368Z,22.55
2018-06-30T18:04:38.063Z,22.24
2018-06-30T18:07:11.503Z,22.61
2018-06-30T18:09:44.457Z,22.70
2018-06-30T18:12:17.326Z,22.02
2018-06-30T18:14:51.790Z,23.53
2018-06-30T18:17:26.216Z,22.68
2018-06-30T18:19:57.608Z,23.63
2018-06-30T18:22:30.509Z,23.78
2018-06-30T18:25:00.422Z,23.63
2018-06-30T18:27:34.662Z,23.83
2018-06-30T18:30:06.094Z,24.05
2018-06-30T18:32:39.007Z,25.93
2018-06-30T18:35:11.973Z,25.93
2018-06-30T18:37:41.292Z,25.32
2018-06-30T18:40:12.737Z,24.84
2018-06-30T18:42:45.564Z,24.78
2018-06-30T18:45:16.984Z,25.72
2018-06-30T18:47:49.856Z,26.20
2018-06-30T18:50:24.202Z,26.50
2018-06-30T18:52:57.074Z,26.48
2018-06-30T18:55:29.963Z,26.19
2018-06-30T18:58:00.332Z,26.27
2018-06-30T19:00:32.007Z,26.17
2018-06-30T19:03:05.030Z,27.88
2018-06-30T19:05:38.308Z,27.14
2018-06-30T19:08:10.327Z,27.39
2018-06-30T19:10:43.242Z,26.96
2018-06-30T19:13:16.160Z,27.92
2018-06-30T19:15:47.728Z,27.39
2018-06-30T19:18:20.651Z,27.19
2018-06-30T19:20:53.990Z,27.97
2018-06-30T19:23:26.896Z,28.06
2018-06-30T19:25:58.864Z,28.39
2018-06-30T19:28:28.766Z,28.21
2018-06-30T19:31:00.712Z,27.82
2018-06-30T19:33:32.180Z,28.36
2018-06-30T19:36:05.047Z,27.92
2018-06-30T19:38:36.520Z,28.44
2018-06-30T19:41:09.507Z,28.47
2018-06-30T19:43:42.310Z,28.59
2018-06-30T19:46:15.627Z,28.83
2018-06-30T19:48:47.174Z,29.30
2018-06-30T19:51:18.518Z,29.17
2018-06-30T19:53:51.850Z,29.51
2018-06-30T19:56:23.784Z,29.47
2018-06-30T19:58:56.745Z,29.56
2018-06-30T20:01:31.878Z,29.67
2018-06-30T20:04:04.960Z,29.79
2018-06-30T20:06:39.444Z,30.28
2018-06-30T20:09:14.116Z,30.22
2018-06-30T20:11:44.572Z,30.17
2018-06-30T20:14:14.492Z,30.52
2018-06-30T20:16:46.484Z,30.36
2018-06-30T20:19:19.490Z,30.25
2018-06-30T20:21:50.839Z,31.08
2018-06-30T20:24:23.753Z,30.42
2018-06-30T20:26:56.642Z,30.30
2018-06-30T20:29:29.253Z,30.65
2018-06-30T20:32:02.783Z,30.66
2018-06-30T20:34:34.236Z,31.25
2018-06-30T20:37:05.708Z,31.55
2018-06-30T20:39:38.190Z,32.04
2018-06-30T20:42:09.549Z,31.96
2018-06-30T20:44:40.943Z,31.88
2018-06-30T20:47:12.396Z,31.75
2018-06-30T20:49:47.010Z,31.82
2018-06-30T20:52:20.411Z,31.93
2018-06-30T20:54:51.921Z,31.78
2018-06-30T20:57:23.307Z,31.29
2018-06-30T20:59:56.227Z,31.79
2018-06-30T21:02:25.741Z,31.17
2018-06-30T21:04:58.717Z,31.60
2018-06-30T21:07:28.707Z,31.01
2018-06-30T21:10:00.167Z,31.29
2018-06-30T21:12:31.567Z,31.20
2018-06-30T21:15:05.398Z,31.25
2018-06-30T21:17:39.050Z,31.35
2018-06-30T21:20:10.723Z,31.40
2018-06-30T21:22:43.508Z,31.62
2018-06-30T21:25:16.682Z,31.83
2018-06-30T21:27:47.462Z,31.36
2018-06-30T21:30:19.526Z,31.26
2018-06-30T21:32:50.446Z,31.52
2018-06-30T21:35:24.313Z,31.39
2018-06-30T21:37:56.071Z,31.51
2018-06-30T21:40:27.718Z,31.54
2018-06-30T21:42:59.683Z,31.82
2018-06-30T21:45:34.137Z,32.15
2018-06-30T21:48:06.947Z,32.47
2018-06-30T21:50:39.098Z,32.41
2018-06-30T21:53:12.018Z,32.14
2018-06-30T21:55:43.747Z,31.57
2018-06-30T21:58:15.362Z,32.36
2018-06-30T22:01:07.011Z,31.92
2018-06-30T22:03:38.485Z,31.96
2018-06-30T22:06:11.340Z,32.52
2018-06-30T22:08:41.804Z,32.13
2018-06-30T22:11:14.006Z,32.17
2018-06-30T22:13:45.543Z,32.39
2018-06-30T22:16:17.135Z,32.04
2018-06-30T22:18:48.633Z,32.25
2018-06-30T22:21:18.760Z,31.74
2018-06-30T22:23:50.503Z,31.87
2018-06-30T22:26:25.209Z,32.13
2018-06-30T22:28:55.219Z,32.21
2018-06-30T22:31:26.913Z,31.92
2018-06-30T22:34:01.708Z,32.57
2018-06-30T22:36:34.053Z,31.82
2018-06-30T22:39:05.487Z,32.46
2018-06-30T22:41:37.047Z,32.01
2018-06-30T22:44:08.720Z,32.27
2018-06-30T22:46:43.136Z,32.15
2018-06-30T22:49:14.510Z,32.39
2018-06-30T22:51:45.901Z,32.17
2018-06-30T22:54:15.912Z,32.39
2018-06-30T22:56:47.282Z,32.66
2018-06-30T22:59:20.204Z,32.30
2018-06-30T23:01:54.553Z,32.37
2018-06-30T23:04:29.308Z,32.78
2018-06-30T23:07:00.379Z,32.99
2018-06-30T23:09:33.354Z,32.96
2018-06-30T23:12:05.969Z,33.25
2018-06-30T23:14:37.375Z,33.42
2018-06-30T23:17:10.710Z,33.31
2018-06-30T23:19:42.146Z,33.65
2018-06-30T23:22:13.620Z,33.79
2018-06-30T23:24:45.878Z,33.80
2018-06-30T23:27:18.367Z,33.64
2018-06-30T23:29:48.854Z,33.96
2018-06-30T23:32:23.678Z,33.83
2018-06-30T23:34:55.095Z,33.73
2018-06-30T23:37:26.620Z,34.35
2018-06-30T23:39:58.813Z,34.22
2018-06-30T23:42:28.981Z,34.42
2018-06-30T23:45:00.447Z,34.94
2018-06-30T23:47:33.887Z,34.99
2018-06-30T23:50:05.480Z,35.53
2018-06-30T23:52:39.223Z,35.33
2018-06-30T23:55:12.773Z,35.71
2018-06-30T23:57:45.635Z,36.17
